KPHD/PHD METAR and TAF weather

Enter ICAO airport designator
Station Type Date Time Source
KPHD METAR 2021/07/27 21:53 UTC NOAA

KPHD 272153Z AUTO VRB05KT 10SM CLR 30/17 A3003 RMK AO2 SLP164 T03000172


Station Type Date Time Source
KPHD Decoded METAR 2021/07/27 21:53 UTC NOAA

NEW PHILADELPHIA CLEVER FLD, OH, United States (KPHD) 40-28N 81-25W 272M
Jul 27, 2021 - 05:53 PM EDT / 2021.07.27 2153 UTC
Wind: Variable at 6 MPH (5 KT):0
Visibility: 10 mile(s):0
Sky conditions: clear
Temperature: 86.0 F (30.0 C)
Dew Point: 63.0 F (17.2 C)
Relative Humidity: 46%
Pressure (altimeter): 30.03 in. Hg (1016 hPa)
ob: KPHD 272153Z AUTO VRB05KT 10SM CLR 30/17 A3003 RMK AO2 SLP164 T03000172
cycle: 22

Station Type Date Time Source
KPHD TAF UTC NOAA

Error!

Example: see airport list